createdAt,value
2018-08-25T00:01:09.501Z,5.87
2018-08-25T00:03:37.662Z,9.17
2018-08-25T00:06:05.909Z,7.90
2018-08-25T00:08:34.074Z,7.17
2018-08-25T00:11:02.263Z,6.40
2018-08-25T00:13:30.409Z,9.70
2018-08-25T00:15:58.580Z,10.27
2018-08-25T00:18:26.741Z,7.00
2018-08-25T00:20:54.888Z,8.30
2018-08-25T00:23:23.049Z,8.53
2018-08-25T00:25:51.205Z,9.40
2018-08-25T00:28:19.349Z,8.23
2018-08-25T00:30:52.997Z,4.90
2018-08-25T00:33:21.169Z,8.47
2018-08-25T00:35:49.342Z,7.80
2018-08-25T00:38:17.508Z,5.87
2018-08-25T00:40:45.637Z,8.70
2018-08-25T00:43:13.787Z,12.53
2018-08-25T00:45:41.973Z,9.50
2018-08-25T00:48:10.134Z,8.07
2018-08-25T00:50:38.317Z,6.70
2018-08-25T00:53:06.645Z,5.97
2018-08-25T00:55:34.812Z,6.00
2018-08-25T00:58:02.961Z,4.70
2018-08-25T01:00:31.151Z,5.03
2018-08-25T01:02:59.306Z,7.43
2018-08-25T01:05:27.465Z,6.80
2018-08-25T01:07:55.616Z,8.30
2018-08-25T01:10:23.792Z,6.47
2018-08-25T01:12:51.709Z,7.80
2018-08-25T01:15:19.659Z,8.70
2018-08-25T01:17:47.817Z,6.63
2018-08-25T01:20:15.984Z,7.73
2018-08-25T01:22:44.142Z,8.07
2018-08-25T01:25:12.318Z,7.20
2018-08-25T01:27:40.472Z,7.43
2018-08-25T01:30:08.621Z,8.23
2018-08-25T01:32:36.824Z,6.17
2018-08-25T01:35:05.005Z,6.03
2018-08-25T01:37:32.932Z,6.87
2018-08-25T01:40:01.182Z,7.97
2018-08-25T01:42:29.354Z,5.40
2018-08-25T01:44:57.517Z,7.43
2018-08-25T01:47:25.689Z,8.17
2018-08-25T01:49:53.824Z,5.90
2018-08-25T01:52:21.972Z,8.27
2018-08-25T01:54:50.113Z,9.97
2018-08-25T01:57:18.284Z,8.33
2018-08-25T01:59:46.448Z,7.50
2018-08-25T02:02:14.628Z,9.03
2018-08-25T02:04:42.784Z,6.33
2018-08-25T02:07:10.973Z,7.47
2018-08-25T02:09:39.125Z,7.33
2018-08-25T02:12:07.272Z,8.87
2018-08-25T02:14:35.436Z,10.83
2018-08-25T02:17:03.613Z,9.07
2018-08-25T02:19:31.830Z,8.20
2018-08-25T02:22:00.004Z,13.17
2018-08-25T02:24:28.180Z,8.33
2018-08-25T02:26:56.350Z,10.77
2018-08-25T02:29:24.544Z,12.10
2018-08-25T02:31:52.782Z,11.60
2018-08-25T02:34:21.064Z,12.80
2018-08-25T02:36:48.996Z,7.80
2018-08-25T02:39:16.936Z,9.00
2018-08-25T02:41:45.105Z,11.03
2018-08-25T02:44:13.277Z,12.83
2018-08-25T02:46:41.457Z,9.20
2018-08-25T02:49:09.628Z,7.60
2018-08-25T02:51:37.528Z,8.70
2018-08-25T02:54:05.709Z,12.93
2018-08-25T02:56:33.896Z,8.40
2018-08-25T02:59:01.831Z,7.30
2018-08-25T03:01:30.026Z,10.43
2018-08-25T03:03:58.179Z,13.00
2018-08-25T03:06:26.333Z,9.27
2018-08-25T03:08:54.492Z,8.17
2018-08-25T03:11:22.656Z,10.27
2018-08-25T03:13:50.935Z,9.63
2018-08-25T03:16:19.052Z,7.33
2018-08-25T03:18:47.442Z,8.73
2018-08-25T03:21:15.588Z,11.83
2018-08-25T03:23:43.725Z,10.10
2018-08-25T03:26:11.890Z,7.83
2018-08-25T03:28:40.042Z,9.77
2018-08-25T03:31:08.206Z,9.60
2018-08-25T03:33:36.348Z,10.63
2018-08-25T03:36:04.530Z,6.50
2018-08-25T03:38:32.673Z,10.00
2018-08-25T03:41:00.822Z,6.53
2018-08-25T03:43:28.961Z,7.80
2018-08-25T03:45:57.100Z,7.57
2018-08-25T03:48:25.235Z,8.80
2018-08-25T03:50:53.397Z,7.03
2018-08-25T03:53:21.530Z,7.33
2018-08-25T03:55:49.444Z,11.87
2018-08-25T03:58:17.605Z,15.13
2018-08-25T04:00:45.539Z,10.73
2018-08-25T04:03:13.714Z,12.87
2018-08-25T04:05:41.868Z,11.23
2018-08-25T04:08:10.008Z,9.80
2018-08-25T04:10:38.170Z,9.20
2018-08-25T04:13:06.310Z,12.10
2018-08-25T04:15:34.517Z,10.33
2018-08-25T04:18:02.690Z,13.00
2018-08-25T04:20:30.821Z,15.23
2018-08-25T04:22:58.971Z,9.37
2018-08-25T04:25:27.134Z,10.07
2018-08-25T04:27:55.298Z,12.20
2018-08-25T04:30:23.437Z,10.83
2018-08-25T04:32:51.612Z,12.70
2018-08-25T04:35:19.754Z,11.60
2018-08-25T04:37:47.905Z,11.33
2018-08-25T04:40:16.066Z,13.23
2018-08-25T04:42:44.223Z,12.83
2018-08-25T04:45:12.389Z,10.37
2018-08-25T04:47:40.307Z,10.97
2018-08-25T04:50:08.465Z,9.43
2018-08-25T04:52:36.628Z,12.27
2018-08-25T04:55:05.224Z,9.10
2018-08-25T04:57:33.377Z,9.97
2018-08-25T05:00:01.576Z,10.20
2018-08-25T05:02:29.731Z,10.53
2018-08-25T05:04:57.892Z,8.90
2018-08-25T05:07:26.030Z,9.90
2018-08-25T05:09:54.158Z,9.03
2018-08-25T05:12:22.304Z,10.10
2018-08-25T05:14:50.464Z,9.70
2018-08-25T05:17:18.617Z,13.47
2018-08-25T05:19:46.765Z,6.40
2018-08-25T05:22:14.909Z,10.80
2018-08-25T05:24:43.061Z,8.67
2018-08-25T05:27:11.241Z,8.20
2018-08-25T05:29:39.153Z,12.13
2018-08-25T05:32:07.120Z,9.53
2018-08-25T05:34:35.267Z,11.70
2018-08-25T05:37:03.426Z,11.30
2018-08-25T05:39:31.570Z,7.03
2018-08-25T05:42:00.350Z,13.50
2018-08-25T05:44:29.246Z,15.13
2018-08-25T05:46:57.405Z,8.67
2018-08-25T05:49:25.571Z,9.70
2018-08-25T05:51:53.735Z,11.20
2018-08-25T05:54:21.993Z,10.57
2018-08-25T05:56:49.896Z,7.63
2018-08-25T05:59:18.049Z,9.13
2018-08-25T06:01:46.273Z,11.83
2018-08-25T06:04:14.191Z,7.20
2018-08-25T06:06:42.380Z,8.57
2018-08-25T06:09:12.289Z,11.00
2018-08-25T06:11:40.985Z,10.97
2018-08-25T06:14:09.182Z,11.20
2018-08-25T06:16:37.438Z,11.43
2018-08-25T06:19:05.418Z,12.30
2018-08-25T06:21:33.529Z,6.10
2018-08-25T06:24:01.709Z,10.20
2018-08-25T06:26:29.652Z,8.10
2018-08-25T06:28:57.852Z,7.70
2018-08-25T06:31:25.998Z,14.63
2018-08-25T06:33:54.413Z,8.77
2018-08-25T06:36:22.565Z,7.37
2018-08-25T06:38:50.747Z,8.57
2018-08-25T06:41:18.929Z,9.10
2018-08-25T06:43:47.089Z,8.50
2018-08-25T06:46:15.235Z,8.77
2018-08-25T06:48:43.389Z,8.37
2018-08-25T06:51:11.538Z,8.90
2018-08-25T06:53:39.721Z,9.73
2018-08-25T06:56:07.873Z,9.80
2018-08-25T06:58:36.300Z,8.93
2018-08-25T07:01:04.532Z,6.90
2018-08-25T07:03:32.682Z,9.80
2018-08-25T07:06:00.928Z,7.97
2018-08-25T07:08:29.022Z,14.53
2018-08-25T07:10:57.182Z,12.23
2018-08-25T07:13:25.314Z,8.87
2018-08-25T07:15:53.461Z,6.83
2018-08-25T07:18:21.863Z,8.50
2018-08-25T07:20:50.016Z,6.60
2018-08-25T07:23:18.418Z,10.77
2018-08-25T07:25:46.628Z,8.70
2018-08-25T07:28:14.743Z,6.70
2018-08-25T07:30:42.933Z,6.23
2018-08-25T07:33:11.061Z,7.43
2018-08-25T07:35:39.232Z,11.93
2018-08-25T07:38:07.418Z,10.30
2018-08-25T07:40:35.300Z,9.80
2018-08-25T07:43:03.630Z,6.17
2018-08-25T07:45:31.792Z,5.97
2018-08-25T07:47:59.940Z,5.97
2018-08-25T07:50:28.090Z,5.53
2018-08-25T07:52:56.234Z,4.67
2018-08-25T07:55:24.369Z,5.47
2018-08-25T07:57:52.513Z,8.73
2018-08-25T08:00:20.670Z,6.93
2018-08-25T08:02:48.805Z,5.20
2018-08-25T08:05:16.989Z,17.70
2018-08-25T08:07:45.158Z,5.17
2018-08-25T08:10:13.319Z,12.70
2018-08-25T08:12:41.467Z,6.63
2018-08-25T08:15:09.614Z,7.80
2018-08-25T08:17:37.987Z,6.70
2018-08-25T08:20:06.288Z,5.20
2018-08-25T08:22:34.498Z,6.73
2018-08-25T08:25:02.648Z,5.50
2018-08-25T08:27:30.794Z,8.83
2018-08-25T08:29:59.276Z,10.77
2018-08-25T08:32:28.126Z,7.50
2018-08-25T08:34:56.280Z,4.30
2018-08-25T08:37:24.422Z,7.90
2018-08-25T08:39:52.572Z,7.53
2018-08-25T08:42:20.804Z,8.97
2018-08-25T08:44:48.895Z,7.77
2018-08-25T08:47:17.103Z,9.53
2018-08-25T08:49:46.813Z,8.67
2018-08-25T08:52:13.451Z,11.20
2018-08-25T08:54:41.610Z,6.30
2018-08-25T08:57:09.765Z,11.50
2018-08-25T08:59:37.914Z,8.03
2018-08-25T09:02:06.439Z,11.60
2018-08-25T09:04:34.593Z,4.93
2018-08-25T09:07:02.771Z,8.33
2018-08-25T09:09:30.893Z,8.33
2018-08-25T09:11:59.058Z,5.40
2018-08-25T09:14:27.446Z,6.30
2018-08-25T09:16:55.822Z,4.73
2018-08-25T09:19:24.002Z,5.77
2018-08-25T09:21:52.106Z,5.63
2018-08-25T09:24:21.126Z,6.93
2018-08-25T09:26:49.362Z,12.60
2018-08-25T09:29:19.735Z,10.90
2018-08-25T09:31:47.816Z,5.67
2018-08-25T09:34:15.920Z,6.27
2018-08-25T09:36:44.013Z,5.90
2018-08-25T09:39:12.214Z,6.07
2018-08-25T09:41:40.746Z,4.97
2018-08-25T09:44:08.670Z,7.13
2018-08-25T09:46:36.792Z,3.70
2018-08-25T09:49:04.740Z,5.60
2018-08-25T09:51:32.897Z,3.40
2018-08-25T09:54:00.918Z,4.50
2018-08-25T09:56:30.164Z,3.40
2018-08-25T09:58:58.391Z,1.97
2018-08-25T10:01:30.102Z,6.30
2018-08-25T10:03:58.581Z,4.53
2018-08-25T10:06:26.753Z,5.73
2018-08-25T10:08:54.984Z,7.70
2018-08-25T10:11:23.497Z,4.10
2018-08-25T10:13:51.654Z,3.17
2018-08-25T10:16:19.839Z,5.20
2018-08-25T10:18:47.971Z,5.00
2018-08-25T10:21:16.136Z,4.53
2018-08-25T10:23:44.328Z,2.73
2018-08-25T10:26:12.467Z,4.53
2018-08-25T10:28:40.624Z,7.80
2018-08-25T10:31:08.784Z,6.60
2018-08-25T10:33:36.947Z,5.33
2018-08-25T10:36:05.229Z,4.43
2018-08-25T10:38:33.391Z,4.30
2018-08-25T10:41:01.558Z,5.33
2018-08-25T10:43:29.706Z,6.77
2018-08-25T10:45:57.865Z,8.07
2018-08-25T10:48:26.050Z,10.77
2018-08-25T10:50:54.046Z,5.83
2018-08-25T10:53:22.181Z,4.97
2018-08-25T10:55:50.330Z,4.97
2018-08-25T10:58:18.256Z,3.50
2018-08-25T11:00:46.600Z,3.10
2018-08-25T11:03:14.546Z,3.67
2018-08-25T11:05:42.744Z,3.93
2018-08-25T11:08:10.917Z,2.80
2018-08-25T11:10:39.047Z,3.83
2018-08-25T11:13:07.261Z,8.13
2018-08-25T11:15:35.402Z,6.20
2018-08-25T11:18:03.552Z,5.70
2018-08-25T11:20:31.854Z,7.73
2018-08-25T11:22:59.829Z,3.73
2018-08-25T11:25:28.045Z,4.57
2018-08-25T11:27:55.957Z,11.90
2018-08-25T11:30:23.881Z,3.90
2018-08-25T11:32:52.033Z,5.60
2018-08-25T11:35:20.165Z,7.23
2018-08-25T11:37:48.413Z,3.43
2018-08-25T11:40:16.212Z,4.77
2018-08-25T11:42:44.357Z,3.87
2018-08-25T11:45:12.543Z,3.13
2018-08-25T11:47:40.680Z,3.47
2018-08-25T11:50:08.838Z,4.97
2018-08-25T11:52:37.005Z,3.23
2018-08-25T11:55:05.423Z,2.83
2018-08-25T11:57:33.557Z,5.33
2018-08-25T12:00:01.695Z,2.37
2018-08-25T12:02:29.841Z,3.30
2018-08-25T12:04:58.037Z,2.97
2018-08-25T12:07:26.166Z,4.60
2018-08-25T12:09:54.290Z,4.83
2018-08-25T12:12:22.433Z,2.43
2018-08-25T12:14:50.601Z,3.83
2018-08-25T12:17:18.776Z,2.80
2018-08-25T12:19:46.925Z,5.57
2018-08-25T12:22:15.065Z,5.33
2018-08-25T12:24:43.200Z,6.47
2018-08-25T12:27:11.707Z,4.27
2018-08-25T12:29:39.699Z,3.03
2018-08-25T12:32:07.841Z,3.93
2018-08-25T12:34:35.989Z,4.17
2018-08-25T12:37:04.122Z,4.77
2018-08-25T12:39:32.270Z,5.27
2018-08-25T12:42:00.421Z,3.23
2018-08-25T12:44:28.547Z,5.77
2018-08-25T12:46:56.480Z,2.90
2018-08-25T12:49:24.629Z,4.93
2018-08-25T12:51:52.561Z,4.17
2018-08-25T12:54:20.714Z,5.47
2018-08-25T12:56:48.861Z,6.27
2018-08-25T12:59:17.030Z,3.77
2018-08-25T13:01:45.277Z,5.90
2018-08-25T13:04:13.349Z,2.87
2018-08-25T13:06:41.242Z,2.47
2018-08-25T13:09:10.841Z,3.13
2018-08-25T13:11:38.867Z,2.97
2018-08-25T13:14:07.291Z,2.70
2018-08-25T13:16:35.454Z,7.03
2018-08-25T13:19:03.682Z,4.67
2018-08-25T13:21:31.805Z,2.40
2018-08-25T13:23:59.965Z,1.97
2018-08-25T13:26:28.134Z,1.90
2018-08-25T13:28:56.440Z,4.10
2018-08-25T13:31:24.603Z,2.00
2018-08-25T13:33:52.744Z,2.07
2018-08-25T13:36:20.640Z,3.37
2018-08-25T13:38:48.784Z,1.13
2018-08-25T13:41:16.938Z,3.70
2018-08-25T13:43:45.079Z,3.83
2018-08-25T13:46:13.221Z,4.53
2018-08-25T13:48:41.400Z,3.10
2018-08-25T13:51:09.634Z,4.60
2018-08-25T13:53:37.685Z,1.50
2018-08-25T13:56:05.824Z,2.60
2018-08-25T13:58:33.724Z,1.60
2018-08-25T14:01:01.865Z,1.40
2018-08-25T14:03:29.997Z,4.43
2018-08-25T14:05:58.124Z,2.70
2018-08-25T14:08:26.465Z,3.40
2018-08-25T14:10:54.531Z,2.77
2018-08-25T14:13:22.703Z,2.13
2018-08-25T14:15:50.898Z,3.77
2018-08-25T14:18:18.985Z,3.03
2018-08-25T14:20:47.144Z,4.57
2018-08-25T14:23:15.289Z,2.80
2018-08-25T14:25:43.445Z,2.23
2018-08-25T14:28:11.591Z,1.43
2018-08-25T14:30:39.708Z,2.40
2018-08-25T14:33:07.997Z,2.30
2018-08-25T14:35:36.184Z,3.10
2018-08-25T14:38:04.768Z,1.10
2018-08-25T14:40:32.925Z,1.77
2018-08-25T14:43:01.303Z,2.50
2018-08-25T14:45:30.124Z,1.47
2018-08-25T14:47:58.844Z,1.20
2018-08-25T14:50:26.969Z,0.90
2018-08-25T14:52:55.120Z,2.00
2018-08-25T14:55:23.314Z,1.00
2018-08-25T14:57:51.465Z,2.87
2018-08-25T15:00:19.668Z,2.00
2018-08-25T15:02:47.829Z,2.00
2018-08-25T15:05:15.994Z,1.43
2018-08-25T15:07:44.149Z,1.47
2018-08-25T15:10:12.056Z,2.23
2018-08-25T15:12:40.218Z,1.23
2018-08-25T15:15:08.375Z,1.23
2018-08-25T15:17:36.549Z,1.40
2018-08-25T15:20:04.967Z,1.23
2018-08-25T15:22:33.097Z,0.70
2018-08-25T15:25:01.266Z,1.97
2018-08-25T15:27:29.408Z,1.30
2018-08-25T15:29:57.564Z,1.07
2018-08-25T15:32:25.485Z,1.50
2018-08-25T15:34:53.665Z,1.40
2018-08-25T15:37:21.815Z,1.40
2018-08-25T15:39:49.938Z,1.50
2018-08-25T15:42:18.082Z,1.03
2018-08-25T15:44:46.253Z,0.80
2018-08-25T15:47:14.406Z,1.80
2018-08-25T15:49:42.571Z,1.00
2018-08-25T15:52:10.787Z,0.90
2018-08-25T15:54:38.874Z,4.00
2018-08-25T15:57:07.078Z,1.30
2018-08-25T15:59:35.297Z,1.10
2018-08-25T16:02:03.685Z,1.30
2018-08-25T16:04:31.824Z,1.10
2018-08-25T16:06:59.978Z,4.50
2018-08-25T16:09:28.124Z,4.93
2018-08-25T16:11:56.109Z,1.90
2018-08-25T16:14:24.200Z,1.53
2018-08-25T16:16:52.354Z,2.33
2018-08-25T16:19:20.397Z,1.70
2018-08-25T16:21:48.157Z,5.73
2018-08-25T16:24:16.281Z,1.17
2018-08-25T16:26:44.445Z,3.07
2018-08-25T16:29:12.606Z,1.30
2018-08-25T16:31:40.934Z,1.50
2018-08-25T16:34:09.560Z,1.40
2018-08-25T16:36:37.748Z,2.30
2018-08-25T16:39:06.438Z,2.10
2018-08-25T16:41:34.571Z,1.83
2018-08-25T16:44:02.730Z,1.70
2018-08-25T16:46:30.873Z,1.63
2018-08-25T16:48:59.073Z,1.60
2018-08-25T16:51:27.236Z,1.33
2018-08-25T16:53:55.131Z,3.23
2018-08-25T16:56:23.273Z,2.10
2018-08-25T16:58:51.429Z,1.53
2018-08-25T17:01:19.581Z,1.87
2018-08-25T17:03:47.725Z,1.83
2018-08-25T17:06:15.862Z,0.90
2018-08-25T17:08:44.030Z,1.57
2018-08-25T17:11:12.139Z,1.73
2018-08-25T17:13:40.036Z,1.07
2018-08-25T17:16:08.164Z,4.47
2018-08-25T17:18:36.302Z,1.60
2018-08-25T17:21:04.506Z,1.70
2018-08-25T17:23:32.642Z,3.47
2018-08-25T17:26:00.804Z,3.13
2018-08-25T17:28:29.244Z,1.73
2018-08-25T17:30:57.424Z,1.77
2018-08-25T17:33:25.637Z,2.60
2018-08-25T17:35:53.818Z,1.37
2018-08-25T17:38:21.997Z,1.80
2018-08-25T17:40:50.194Z,4.93
2018-08-25T17:43:18.380Z,1.37
2018-08-25T17:45:46.522Z,1.33
2018-08-25T17:48:14.693Z,1.10
2018-08-25T17:50:42.844Z,1.90
2018-08-25T17:53:11.125Z,1.20
2018-08-25T17:55:39.244Z,1.90
2018-08-25T17:58:07.486Z,1.97
2018-08-25T18:00:35.608Z,2.30
2018-08-25T18:03:03.797Z,3.20
2018-08-25T18:05:31.935Z,3.70
2018-08-25T18:08:00.077Z,1.97
2018-08-25T18:10:28.276Z,2.27
2018-08-25T18:12:56.517Z,1.70
2018-08-25T18:15:24.694Z,1.50
2018-08-25T18:17:52.868Z,3.13
2018-08-25T18:20:21.027Z,2.10
2018-08-25T18:22:48.955Z,1.70
2018-08-25T18:25:17.113Z,2.03
2018-08-25T18:27:45.237Z,4.23
2018-08-25T18:30:13.429Z,1.90
2018-08-25T18:32:41.546Z,2.50
2018-08-25T18:35:09.460Z,2.57
2018-08-25T18:37:37.381Z,2.70
2018-08-25T18:40:05.592Z,2.33
2018-08-25T18:42:33.749Z,2.20
2018-08-25T18:45:01.668Z,3.80
2018-08-25T18:47:30.656Z,4.07
2018-08-25T18:49:58.796Z,3.30
2018-08-25T18:52:26.933Z,2.00
2018-08-25T18:54:55.170Z,2.50
2018-08-25T18:57:23.272Z,1.50
2018-08-25T18:59:51.413Z,2.53
2018-08-25T19:02:19.628Z,3.27
2018-08-25T19:04:47.734Z,3.23
2018-08-25T19:07:15.905Z,2.30
2018-08-25T19:09:44.054Z,3.90
2018-08-25T19:12:11.972Z,3.87
2018-08-25T19:14:40.152Z,2.50
2018-08-25T19:17:08.098Z,2.30
2018-08-25T19:19:36.274Z,5.03
2018-08-25T19:22:04.181Z,3.37
2018-08-25T19:24:32.091Z,6.33
2018-08-25T19:27:00.012Z,2.17
2018-08-25T19:29:28.160Z,3.17
2018-08-25T19:31:56.345Z,4.77
2018-08-25T19:34:24.529Z,2.20
2018-08-25T19:36:52.469Z,3.40
2018-08-25T19:39:20.583Z,3.10
2018-08-25T19:41:48.644Z,4.83
2018-08-25T19:44:16.793Z,2.53
2018-08-25T19:46:44.971Z,4.07
2018-08-25T19:49:13.865Z,2.77
2018-08-25T19:51:41.787Z,2.53
2018-08-25T19:54:10.270Z,3.00
2018-08-25T19:56:38.454Z,2.60
2018-08-25T19:59:06.602Z,1.60
2018-08-25T20:01:34.743Z,2.03
2018-08-25T20:04:02.761Z,2.07
2018-08-25T20:06:30.920Z,1.70
2018-08-25T20:08:59.065Z,2.03
2018-08-25T20:11:27.222Z,3.13
2018-08-25T20:13:55.420Z,2.10
2018-08-25T20:16:23.653Z,2.20
2018-08-25T20:18:51.798Z,11.63
2018-08-25T20:21:19.954Z,3.10
2018-08-25T20:23:48.121Z,2.40
2018-08-25T20:26:16.255Z,3.87
2018-08-25T20:28:44.393Z,1.93
2018-08-25T20:31:12.533Z,3.23
2018-08-25T20:33:40.676Z,2.60
2018-08-25T20:36:08.862Z,5.57
2018-08-25T20:38:37.096Z,4.70
2018-08-25T20:41:05.261Z,2.43
2018-08-25T20:43:33.392Z,3.43
2018-08-25T20:46:01.652Z,3.63
2018-08-25T20:48:29.690Z,2.40
2018-08-25T20:50:57.851Z,2.63
2018-08-25T20:53:25.898Z,3.33
2018-08-25T20:55:53.937Z,3.27
2018-08-25T20:58:21.856Z,2.80
2018-08-25T21:00:49.916Z,2.60
2018-08-25T21:03:17.996Z,1.77
2018-08-25T21:05:46.136Z,2.10
2018-08-25T21:08:14.293Z,2.97
2018-08-25T21:10:42.477Z,3.20
2018-08-25T21:13:10.630Z,4.13
2018-08-25T21:15:38.773Z,2.03
2018-08-25T21:18:06.904Z,3.03
2018-08-25T21:20:35.030Z,1.90
2018-08-25T21:23:03.177Z,2.60
2018-08-25T21:25:31.328Z,2.23
2018-08-25T21:27:59.480Z,3.70
2018-08-25T21:30:27.647Z,1.80
2018-08-25T21:32:55.817Z,3.37
2018-08-25T21:35:24.013Z,2.50
2018-08-25T21:37:52.102Z,2.30
2018-08-25T21:40:20.281Z,3.37
2018-08-25T21:42:48.477Z,3.40
2018-08-25T21:45:16.688Z,1.80
2018-08-25T21:47:44.616Z,2.33
2018-08-25T21:50:13.085Z,2.50
2018-08-25T21:52:41.258Z,2.30
2018-08-25T21:55:09.194Z,2.63
2018-08-25T21:57:37.349Z,2.87
2018-08-25T22:00:06.436Z,2.10
2018-08-25T22:02:34.586Z,4.07
2018-08-25T22:05:02.721Z,2.07
2018-08-25T22:07:30.861Z,3.67
2018-08-25T22:09:59.005Z,2.37
2018-08-25T22:12:27.166Z,2.27
2018-08-25T22:14:55.081Z,3.07
2018-08-25T22:17:23.212Z,3.27
2018-08-25T22:19:51.343Z,4.73
2018-08-25T22:22:19.473Z,4.43
2018-08-25T22:24:47.641Z,5.03
2018-08-25T22:27:15.539Z,7.13
2018-08-25T22:29:43.684Z,3.83
2018-08-25T22:32:11.834Z,5.87
2018-08-25T22:34:40.009Z,3.40
2018-08-25T22:37:08.194Z,4.10
2018-08-25T22:39:36.113Z,3.83
2018-08-25T22:42:04.265Z,4.07
2018-08-25T22:44:32.406Z,3.53
2018-08-25T22:47:00.557Z,3.77
2018-08-25T22:49:28.706Z,3.07
2018-08-25T22:51:56.860Z,4.27
2018-08-25T22:54:24.987Z,5.17
2018-08-25T22:56:53.148Z,3.57
2018-08-25T22:59:21.319Z,3.37
2018-08-25T23:01:49.441Z,4.50
2018-08-25T23:04:17.596Z,3.73
2018-08-25T23:06:45.764Z,4.43
2018-08-25T23:09:13.924Z,5.67
2018-08-25T23:11:42.060Z,4.50
2018-08-25T23:14:10.209Z,7.47
2018-08-25T23:16:38.359Z,6.43
2018-08-25T23:19:06.522Z,6.93
2018-08-25T23:21:34.693Z,4.33
2018-08-25T23:24:02.865Z,5.90
2018-08-25T23:26:31.021Z,5.47
2018-08-25T23:28:59.180Z,4.70
2018-08-25T23:31:27.363Z,6.80
2018-08-25T23:33:55.544Z,6.87
2018-08-25T23:36:23.748Z,5.43
2018-08-25T23:38:51.921Z,5.30
2018-08-25T23:41:20.037Z,6.50
2018-08-25T23:43:48.181Z,10.13
2018-08-25T23:46:16.325Z,5.23
2018-08-25T23:48:44.445Z,6.03
2018-08-25T23:51:12.616Z,5.97
2018-08-25T23:53:40.774Z,3.87
2018-08-25T23:56:08.922Z,5.77
2018-08-25T23:58:37.042Z,5.07
